WTTO2: Illinois River, Watts, OK

Data processed at Fri Jan 05 2018 23:34


All information presented herein is the property of the government of the United States of America and may be revised or deleted at any time without prior notice.
Dissemination of this information without the expressed written consent of the Public Affairs Office, Tulsa District U.S. Army Corps of Engineers is strictly prohibited.
These data are gathered electronically and, as presented, have not undergone any form of quality control. These data are not guaranteed to be valid or correct.
Go to home page.
Go to station list.

Upstream stations:

Downstream station:
Previous Day
Next Day
Current Day
    
SHEF ID:       WTTO2     Illinois River near Watts, OK
STATION TYPE:  

               PRECIP     STAGE  STAGE(2)  RIV-FLOW   VOLTAGE  BAT-LOAD
                   in        ft        ft       cfs      volt      volt
              Ccp-Rev   Ccp-Rev   Ccp-Rev   Ccp-Rev   Ccp-Rev   Ccp-Rev
(US/Central)
01/03 00:00      0.00      2.75     77.05       192     12.70     11.72
01/03 01:00      0.00      2.74     77.00       190     12.70     11.72
01/03 02:00      0.00      2.74     77.24       190     12.60     11.66
01/03 03:00      0.00      2.74     77.40       190     12.50     11.54
01/03 04:00      0.00      2.73     77.53       188     12.50     11.54
01/03 05:00      0.00      2.71     77.41       184     12.50     11.48
01/03 06:00      0.00      2.72     77.45       186     12.50     11.48
01/03 07:00      0.00      2.70     77.40       181     12.50     11.48
01/03 08:00      0.00      2.70     77.40       181     13.80     11.54
01/03 09:00      0.00      2.70     77.84       181     13.90     12.77
01/03 10:00      0.00      2.70     78.34       181     13.90     13.07
01/03 11:00      0.00      2.70     78.86       181     13.90     13.07
01/03 12:00      0.00      2.66     78.35       173     14.00     13.07
01/03 13:00      0.00      2.72      5.24       186     14.00     13.07
01/03 14:00      0.00      2.72      2.10       186     14.00     13.07
01/03 15:00      0.00      2.71      2.08       184      ----      ----
01/03 16:00      0.00      2.71      2.07       184     14.00     13.00
01/03 17:00      0.00      2.73      2.06       188     13.50     12.89
01/03 18:00      0.00      2.74      2.06       190     13.10     12.48
01/03 19:00      0.00      2.73      2.05       188     13.00     12.13
01/03 20:00      0.00      2.73      2.05       188     13.00     12.07
01/03 21:00      0.00      2.73      2.06       188     12.90     12.01
01/03 22:00      0.00      2.75      2.58       192     12.90     11.95
01/03 23:00      0.00      2.75     13.09       192     12.90     11.95